Time;durP1;ratioP1;P1;durP2;ratioP2;P2;SDS_P1;SDS_P2;PMS_P1;PMS_P2;Temp;Humidity;BMP_temperature;BMP_pressure;BME280_temperature;BME280_humidity;BME280_pressure;Samples;Min_cycle;Max_cycle;Signal;HPM_P1;HPM_P2
2022/10/17 00:01:22;;;;;;;15.53;10.53;;;;;;;13.75;75.30;99563.41;1655363;86;25413;-64
2022/10/17 00:03:48;;;;;;;13.03;9.63;;;;;;;13.73;75.38;99565.10;1650677;86;25758;-64
2022/10/17 00:06:15;;;;;;;16.27;9.98;;;;;;;13.72;75.29;99570.92;1642437;86;25448;-63
2022/10/17 00:08:43;;;;;;;14.35;9.50;;;;;;;13.71;75.26;99573.44;1642584;87;27679;-63
2022/10/17 00:11:17;;;;;;;16.10;9.35;;;;;;;13.69;75.21;99577.88;1642095;87;25452;-63
2022/10/17 00:13:46;;;;;;;20.60;10.88;;;;;;;13.62;75.19;99573.38;1641548;87;25688;-63
2022/10/17 00:16:14;;;;;;;14.60;10.53;;;;;;;13.52;75.38;99573.04;1642095;87;25863;-64
2022/10/17 00:18:40;;;;;;;14.85;9.75;;;;;;;13.49;75.59;99573.08;1642325;87;25681;-63
2022/10/17 00:21:17;;;;;;;22.58;13.13;;;;;;;13.48;75.71;99570.08;1642018;87;27652;-63
2022/10/17 00:23:44;;;;;;;13.80;9.53;;;;;;;13.48;75.71;99570.08;1641666;87;25865;-63
2022/10/17 00:26:10;;;;;;;15.55;10.48;;;;;;;13.48;75.73;99586.60;1642044;87;25607;-63
2022/10/17 00:28:37;;;;;;;14.68;10.93;;;;;;;13.40;75.78;99585.40;1642304;86;25711;-61
2022/10/17 00:31:05;;;;;;;18.52;11.45;;;;;;;13.30;75.79;99589.76;1642312;87;25493;-63
2022/10/17 00:33:34;;;;;;;21.30;12.90;;;;;;;13.15;75.99;99589.50;1642380;87;28318;-63
2022/10/17 00:36:14;;;;;;;21.87;13.88;;;;;;;12.98;76.52;99595.08;1641933;87;25531;-63
2022/10/17 00:38:44;;;;;;;25.17;14.23;;;;;;;12.72;76.62;99588.72;1642307;87;25544;-63
2022/10/17 00:41:14;;;;;;;21.20;13.03;;;;;;;12.64;77.04;99600.45;1642028;87;25598;-63
2022/10/17 00:43:58;;;;;;;19.37;12.65;;;;;;;12.66;76.82;99600.94;1642420;87;25517;-63
2022/10/17 00:46:29;;;;;;;18.60;12.23;;;;;;;12.64;76.91;99608.70;1638007;87;27397;-64
2022/10/17 00:48:56;;;;;;;16.70;10.58;;;;;;;12.60;76.65;99605.73;1641925;87;25630;-63
2022/10/17 00:51:28;;;;;;;19.45;12.45;;;;;;;12.53;76.78;99606.70;1642370;87;25641;-62
2022/10/17 00:53:55;;;;;;;17.85;11.40;;;;;;;12.45;76.88;99613.70;1642366;87;25756;-63
2022/10/17 00:56:22;;;;;;;16.15;11.57;;;;;;;12.41;76.98;99604.44;1642034;85;25456;-62
2022/10/17 00:58:49;;;;;;;21.95;12.98;;;;;;;12.37;77.27;99602.02;1642380;85;27574;-62
2022/10/17 01:01:15;;;;;;;18.30;11.80;;;;;;;12.39;77.41;99592.92;1642046;87;25606;-62
2022/10/17 01:03:41;;;;;;;17.40;11.73;;;;;;;12.32;77.52;99595.26;1643520;86;25658;-63
2022/10/17 01:06:07;;;;;;;18.60;10.68;;;;;;;12.28;77.74;99586.25;1655018;86;25687;-62
2022/10/17 01:08:34;;;;;;;16.80;10.45;;;;;;;12.26;78.25;99585.72;1655097;86;25690;-62
2022/10/17 01:11:12;;;;;;;15.13;10.48;;;;;;;12.28;78.88;99582.13;1655150;86;27514;-62
2022/10/17 01:13:52;;;;;;;13.50;8.93;;;;;;;12.39;79.02;99584.68;1654757;86;25455;-62
2022/10/17 01:16:50;;;;;;;14.17;9.40;;;;;;;12.50;78.64;99585.31;1655208;86;25795;-63
2022/10/17 01:19:27;;;;;;;13.22;9.05;;;;;;;12.57;78.28;99588.47;1654525;86;25730;-63
2022/10/17 01:21:59;;;;;;;15.78;9.18;;;;;;;12.64;78.05;99599.87;1654143;86;25429;-63
2022/10/17 01:24:48;;;;;;;14.58;9.55;;;;;;;12.70;77.93;99599.78;1655152;86;27466;-63
2022/10/17 01:27:35;;;;;;;15.08;9.25;;;;;;;12.74;77.76;99601.62;1661774;85;25609;-62
2022/10/17 01:30:31;;;;;;;15.15;9.55;;;;;;;12.78;77.63;99596.34;1655246;86;25499;-63
2022/10/17 01:33:15;;;;;;;15.45;9.90;;;;;;;12.73;77.92;99597.25;1654780;86;25715;-62
2022/10/17 01:36:28;;;;;;;14.38;9.10;;;;;;;12.73;77.87;99597.80;1655014;86;25678;-63
2022/10/17 01:39:18;;;;;;;14.85;9.35;;;;;;;12.71;77.99;99606.91;1672250;85;27372;-64
2022/10/17 01:42:13;;;;;;;15.20;9.78;;;;;;;12.71;78.14;99603.61;1658988;85;25891;-62
2022/10/17 01:44:54;;;;;;;15.23;9.95;;;;;;;12.74;78.22;99600.80;1655149;86;25688;-63
2022/10/17 01:47:25;;;;;;;18.32;9.90;;;;;;;12.77;78.19;99592.76;1661690;85;32459;-63
2022/10/17 01:49:56;;;;;;;13.18;9.03;;;;;;;12.84;78.10;99595.08;1654844;86;25622;-63
2022/10/17 01:52:31;;;;;;;14.87;8.93;;;;;;;12.91;77.89;99587.81;1654902;86;29474;-63
2022/10/17 01:55:18;;;;;;;14.60;9.88;;;;;;;12.97;77.77;99587.96;1654488;86;25666;-63
2022/10/17 01:57:52;;;;;;;16.50;10.68;;;;;;;13.07;77.43;99585.54;1672485;85;25406;-62
2022/10/17 02:00:23;;;;;;;15.28;11.22;;;;;;;13.11;77.29;99587.13;1671797;85;25754;-63
2022/10/17 02:02:59;;;;;;;20.30;13.30;;;;;;;13.11;77.18;99586.58;1659579;85;25687;-62
2022/10/17 02:05:34;;;;;;;22.48;13.18;;;;;;;13.13;77.08;99586.27;1654729;86;27378;-63
2022/10/17 02:08:00;;;;;;;28.47;15.88;;;;;;;13.08;77.06;99580.31;1654683;85;25748;-62
2022/10/17 02:10:50;;;;;;;19.52;11.50;;;;;;;13.07;77.17;99593.80;1654776;86;25703;-62
2022/10/17 02:13:46;;;;;;;16.07;10.53;;;;;;;13.04;77.06;99582.85;1655076;86;27818;-62
2022/10/17 02:16:48;;;;;;;15.88;10.05;;;;;;;12.99;77.11;99589.03;1655212;86;25614;-63
2022/10/17 02:19:50;;;;;;;14.75;9.75;;;;;;;12.92;76.92;99588.87;1654700;86;27482;-64
2022/10/17 02:22:29;;;;;;;16.85;9.65;;;;;;;12.86;76.87;99594.23;1654151;86;29864;-62
2022/10/17 02:25:33;;;;;;;15.28;9.98;;;;;;;12.75;76.82;99599.11;1654981;86;25703;-61
2022/10/17 02:28:30;;;;;;;15.65;10.43;;;;;;;12.70;76.99;99597.86;1654732;86;25758;-61
2022/10/17 02:31:28;;;;;;;17.37;10.20;;;;;;;12.67;76.89;99597.09;1654712;86;25667;-62
2022/10/17 02:34:05;;;;;;;16.07;10.65;;;;;;;12.59;76.90;99596.41;1672230;85;27370;-63
2022/10/17 02:36:38;;;;;;;16.32;8.98;;;;;;;12.51;77.34;99599.30;1662834;85;25657;-63
2022/10/17 02:39:13;;;;;;;14.98;10.38;;;;;;;12.48;77.45;99599.91;1655231;86;25681;-63
2022/10/17 02:41:40;;;;;;;17.62;10.58;;;;;;;12.42;77.49;99602.77;1668911;85;25670;-63
2022/10/17 02:44:08;;;;;;;13.03;8.75;;;;;;;12.36;77.37;99605.90;1654739;86;25494;-60
2022/10/17 02:46:36;;;;;;;14.58;9.85;;;;;;;12.28;77.39;99603.28;1654771;86;27354;-63
2022/10/17 02:49:22;;;;;;;15.88;9.93;;;;;;;12.18;77.22;99611.16;1655134;86;25688;-63
2022/10/17 02:52:15;;;;;;;15.60;9.55;;;;;;;12.05;77.28;99616.83;1655025;86;25605;-63
2022/10/17 02:55:11;;;;;;;14.25;9.68;;;;;;;11.96;77.31;99608.45;1655233;86;25823;-63
2022/10/17 02:57:48;;;;;;;17.35;10.63;;;;;;;11.88;77.34;99612.70;1654880;86;25489;-63
2022/10/17 03:00:16;;;;;;;16.00;10.20;;;;;;;11.71;77.34;99604.99;1654842;86;27364;-63
2022/10/17 03:02:51;;;;;;;25.92;13.75;;;;;;;11.51;77.59;99613.80;1655015;86;25668;-63
2022/10/17 03:05:25;;;;;;;53.15;23.15;;;;;;;11.35;77.77;99621.44;1648664;86;25751;-63
2022/10/17 03:07:53;;;;;;;37.67;18.42;;;;;;;11.20;78.08;99623.00;1642076;87;25747;-63
2022/10/17 03:10:21;;;;;;;32.98;16.70;;;;;;;11.17;78.42;99628.53;1642140;87;25492;-63
2022/10/17 03:12:48;;;;;;;70.83;28.60;;;;;;;11.07;78.20;99630.01;1642111;87;27574;-63
2022/10/17 03:15:14;;;;;;;58.23;26.07;;;;;;;10.94;78.63;99630.97;1642063;87;25666;-63
2022/10/17 03:17:40;;;;;;;34.63;18.60;;;;;;;10.92;78.58;99624.98;1642100;87;25513;-62
2022/10/17 03:20:08;;;;;;;31.65;17.57;;;;;;;10.87;78.60;99622.28;1642520;87;26081;-64
2022/10/17 03:22:34;;;;;;;48.95;22.67;;;;;;;10.86;78.91;99626.14;1642536;87;25513;-63
2022/10/17 03:25:01;;;;;;;41.88;21.42;;;;;;;10.89;79.08;99629.13;1642069;87;27521;-63
2022/10/17 03:27:27;;;;;;;41.25;20.40;;;;;;;10.94;79.12;99636.45;1641901;87;27158;-63
2022/10/17 03:29:53;;;;;;;35.90;18.73;;;;;;;10.97;78.90;99634.50;1642063;87;25631;-62
2022/10/17 03:32:19;;;;;;;37.90;19.87;;;;;;;11.01;78.96;99643.80;1642050;87;25796;-63
2022/10/17 03:34:46;;;;;;;39.63;20.15;;;;;;;10.92;78.66;99641.44;1642527;85;25655;-63
2022/10/17 03:37:12;;;;;;;38.55;19.07;;;;;;;10.85;78.65;99650.00;1642427;85;28345;-63
2022/10/17 03:39:38;;;;;;;34.35;19.00;;;;;;;10.68;78.82;99655.92;1725829;82;25394;-62
2022/10/17 03:42:04;;;;;;;40.38;20.00;;;;;;;10.49;79.34;99654.48;1736145;82;25504;-62
2022/10/17 03:44:31;;;;;;;36.58;20.57;;;;;;;10.32;79.77;99662.55;1739264;82;25857;-62
2022/10/17 03:46:57;;;;;;;40.20;21.80;;;;;;;10.22;79.93;99664.81;1739709;82;25413;-62
2022/10/17 03:49:30;;;;;;;51.48;26.68;;;;;;;10.17;80.24;99667.03;1739439;82;27468;-62
2022/10/17 03:52:03;;;;;;;47.27;26.05;;;;;;;10.21;80.30;99666.47;1738972;82;25645;-63
2022/10/17 03:54:37;;;;;;;40.30;22.58;;;;;;;10.22;80.33;99654.42;1739716;82;25612;-62
2022/10/17 03:57:08;;;;;;;39.78;21.30;;;;;;;10.24;80.43;99663.15;1739481;82;25686;-60
2022/10/17 03:59:40;;;;;;;33.90;19.00;;;;;;;10.25;80.40;99669.72;1739445;82;25688;-61
2022/10/17 04:02:07;;;;;;;29.07;16.37;;;;;;;10.25;80.47;99669.72;1739396;82;27377;-63
2022/10/17 04:04:40;;;;;;;26.60;16.25;;;;;;;10.26;80.69;99664.52;1739491;82;25670;-63
2022/10/17 04:07:13;;;;;;;29.45;15.88;;;;;;;10.30;80.86;99663.38;1739394;82;25685;-63
2022/10/17 04:09:47;;;;;;;28.02;16.00;;;;;;;10.34;81.08;99662.27;1739617;82;25731;-63
2022/10/17 04:12:17;;;;;;;24.47;14.70;;;;;;;10.41;81.19;99666.85;1739827;82;25621;-62
2022/10/17 04:14:44;;;;;;;24.70;14.23;;;;;;;10.45;80.98;99669.84;1739712;82;27625;-63
2022/10/17 04:17:10;;;;;;;28.75;15.50;;;;;;;10.45;81.04;99662.99;1739163;82;25436;-62
2022/10/17 04:19:36;;;;;;;26.68;16.17;;;;;;;10.47;81.32;99656.69;1739435;82;25594;-63
2022/10/17 04:22:03;;;;;;;27.55;15.18;;;;;;;10.49;81.99;99653.94;1739245;82;25738;-63
2022/10/17 04:24:29;;;;;;;24.63;14.95;;;;;;;10.56;82.29;99661.80;1739802;82;25428;-63
2022/10/17 04:26:55;;;;;;;27.45;16.20;;;;;;;10.66;82.16;99667.22;1739484;82;28084;-63
2022/10/17 04:29:23;;;;;;;27.87;16.65;;;;;;;10.67;81.35;99665.27;1739281;82;25678;-62
2022/10/17 04:31:51;;;;;;;29.77;17.23;;;;;;;10.55;81.14;99664.30;1739274;82;25440;-63
2022/10/17 04:34:17;;;;;;;33.83;17.95;;;;;;;10.37;81.34;99664.43;1739254;82;25769;-63
2022/10/17 04:36:44;;;;;;;37.58;20.80;;;;;;;10.20;81.49;99670.31;1739659;82;25568;-63
2022/10/17 04:39:10;;;;;;;36.83;21.12;;;;;;;10.07;81.70;99675.91;1742497;82;26654;-63
2022/10/17 04:41:37;;;;;;;51.68;26.55;;;;;;;9.93;81.87;99676.52;1744701;82;25447;-63
2022/10/17 04:44:04;;;;;;;43.90;24.85;;;;;;;9.91;82.02;99684.22;1744762;81;25678;-63
2022/10/17 04:46:32;;;;;;;43.02;24.30;;;;;;;9.92;81.67;99679.00;1745061;81;25802;-63
2022/10/17 04:48:59;;;;;;;45.92;24.32;;;;;;;9.87;81.88;99674.38;1745251;81;25439;-62
2022/10/17 04:51:26;;;;;;;48.52;27.32;;;;;;;9.88;81.98;99672.47;1744868;82;27543;-63
2022/10/17 04:53:52;;;;;;;32.48;20.00;;;;;;;9.90;82.08;99671.08;1744972;81;25601;-63
2022/10/17 04:56:22;;;;;;;30.25;18.45;;;;;;;9.95;82.75;99665.28;1744788;82;25623;-63
2022/10/17 04:58:50;;;;;;;32.78;19.17;;;;;;;10.07;83.58;99666.33;1745328;82;26694;-62
2022/10/17 05:01:22;;;;;;;30.82;18.27;;;;;;;10.10;82.39;99669.86;1745109;82;25625;-62
2022/10/17 05:03:49;;;;;;;32.95;17.75;;;;;;;10.09;82.40;99664.09;1745076;82;27419;-62
2022/10/17 05:06:20;;;;;;;32.88;19.12;;;;;;;10.14;82.44;99659.96;1744834;82;25491;-63
2022/10/17 05:08:47;;;;;;;46.08;15.43;;;;;;;10.24;82.79;99668.63;1745352;81;25432;-62
2022/10/17 05:11:23;;;;;;;18.73;11.45;;;;;;;10.34;83.37;99663.63;1745019;82;26419;-61
2022/10/17 05:13:54;;;;;;;18.40;11.88;;;;;;;10.52;84.36;99660.22;1745150;81;25637;-63
2022/10/17 05:16:21;;;;;;;20.85;13.10;;;;;;;10.71;83.62;99666.31;1745411;81;27535;-61
2022/10/17 05:18:50;;;;;;;25.97;14.40;;;;;;;10.82;83.03;99667.03;1744737;82;25437;-63
2022/10/17 05:21:18;;;;;;;29.57;17.02;;;;;;;10.83;81.99;99677.45;1744923;82;25436;-63
2022/10/17 05:23:45;;;;;;;28.52;16.65;;;;;;;10.51;81.12;99681.85;1745102;81;26383;-61
2022/10/17 05:26:12;;;;;;;30.60;17.10;;;;;;;10.20;81.31;99684.02;1745036;81;25488;-62
2022/10/17 05:28:40;;;;;;;31.23;18.45;;;;;;;9.93;82.08;99690.22;1745171;82;28193;-63
2022/10/17 05:31:19;;;;;;;31.07;17.20;;;;;;;9.81;82.13;99692.51;1744662;82;27135;-62
2022/10/17 05:33:46;;;;;;;26.87;17.82;;;;;;;9.65;82.35;99689.28;1745118;81;25579;-62
2022/10/17 05:36:12;;;;;;;30.30;17.42;;;;;;;9.56;82.57;99695.10;1744674;82;25734;-62
2022/10/17 05:38:38;;;;;;;30.57;17.70;;;;;;;9.57;82.88;99698.09;1744673;82;25713;-63
2022/10/17 05:41:05;;;;;;;36.85;19.07;;;;;;;9.69;82.92;99702.41;1744760;82;27449;-62
2022/10/17 05:43:33;;;;;;;29.20;15.85;;;;;;;9.79;82.91;99690.05;1744691;82;25649;-62
2022/10/17 05:46:04;;;;;;;30.77;14.70;;;;;;;9.93;83.43;99693.52;1745119;81;25447;-63
2022/10/17 05:48:31;;;;;;;;;;;;;;;10.15;84.52;99700.77;1747336;82;25738;-62
2022/10/17 05:51:03;;;;;;;21.20;13.90;;;;;;;10.39;84.79;99699.22;1744808;82;25623;-63
2022/10/17 05:53:32;;;;;;;24.47;13.78;;;;;;;10.60;85.07;99699.06;1745067;82;27598;-63
2022/10/17 05:56:00;;;;;;;16.93;11.15;;;;;;;10.85;84.98;99697.98;1744946;81;25696;-64
2022/10/17 05:58:27;;;;;;;21.35;12.93;;;;;;;11.12;84.90;99702.66;1745061;82;25692;-63
2022/10/17 06:01:00;;;;;;;24.25;11.95;;;;;;;11.34;84.05;99702.69;1744746;82;25892;-63
2022/10/17 06:03:26;;;;;;;18.12;11.57;;;;;;;11.52;83.60;99701.88;1744227;81;25596;-62
2022/10/17 06:05:53;;;;;;;19.52;11.18;;;;;;;11.69;83.19;99701.97;1737796;81;28642;-63
2022/10/17 06:08:20;;;;;;;18.90;11.20;;;;;;;11.84;82.94;99715.21;1744876;82;25476;-63
2022/10/17 06:10:50;;;;;;;15.43;9.78;;;;;;;11.97;82.72;99717.79;1745155;82;25756;-64
2022/10/17 06:13:17;;;;;;;18.75;11.08;;;;;;;12.09;82.29;99726.41;1744885;82;34593;-63
2022/10/17 06:15:44;;;;;;;14.68;10.32;;;;;;;12.21;82.08;99724.60;1745015;82;25456;-64
2022/10/17 06:18:11;;;;;;;18.57;10.25;;;;;;;12.32;81.73;99727.19;1744743;81;27470;-64
2022/10/17 06:20:38;;;;;;;16.32;10.50;;;;;;;12.42;81.38;99729.22;1744678;81;25436;-64
2022/10/17 06:23:05;;;;;;;16.48;9.83;;;;;;;12.53;80.97;99729.84;1745388;81;25417;-64
2022/10/17 06:25:33;;;;;;;15.35;9.38;;;;;;;12.66;80.65;99733.77;1744941;82;26164;-64
2022/10/17 06:28:00;;;;;;;14.28;9.40;;;;;;;12.79;80.17;99730.81;1745228;82;25598;-62
2022/10/17 06:30:26;;;;;;;14.75;9.30;;;;;;;12.92;80.15;99736.06;1744942;82;28487;-63
2022/10/17 06:32:53;;;;;;;15.05;8.75;;;;;;;13.04;79.93;99738.32;1745047;82;25581;-63
2022/10/17 06:35:19;;;;;;;15.65;9.10;;;;;;;13.15;79.48;99741.70;1745339;81;25635;-63
2022/10/17 06:37:46;;;;;;;15.13;8.80;;;;;;;13.29;79.35;99741.72;1745145;81;25679;-64
2022/10/17 06:40:14;;;;;;;16.80;11.03;;;;;;;13.41;78.63;99744.50;1744861;82;25457;-64
2022/10/17 06:42:40;;;;;;;15.58;10.32;;;;;;;13.52;78.70;99741.84;1744883;81;27467;-63
2022/10/17 06:45:09;;;;;;;15.60;9.95;;;;;;;13.64;78.26;99750.95;1744825;82;25467;-64
2022/10/17 06:47:36;;;;;;;11.35;7.37;;;;;;;13.79;78.05;99750.39;1745450;82;25590;-63
2022/10/17 06:50:03;;;;;;;16.00;8.98;;;;;;;13.91;76.74;99757.54;1745134;81;26350;-64
2022/10/17 06:52:29;;;;;;;12.78;8.08;;;;;;;14.09;76.78;99757.72;1744982;81;25672;-64
2022/10/17 06:54:56;;;;;;;12.80;8.38;;;;;;;14.27;75.99;99764.75;1744849;82;27451;-64
2022/10/17 06:57:22;;;;;;;15.38;7.90;;;;;;;14.44;76.31;99758.56;1744821;82;25814;-63
2022/10/17 06:59:49;;;;;;;12.88;7.80;;;;;;;14.64;75.61;99761.95;1744874;81;25721;-64
2022/10/17 07:02:15;;;;;;;11.22;7.95;;;;;;;14.82;75.21;99763.49;1745531;82;26526;-64
2022/10/17 07:04:42;;;;;;;11.43;7.92;;;;;;;15.12;74.92;99766.56;1741051;82;25694;-64
2022/10/17 07:07:08;;;;;;;9.80;7.62;;;;;;;15.12;74.92;99766.56;1745386;81;27424;-64
2022/10/17 07:09:35;;;;;;;12.88;8.60;;;;;;;15.39;74.49;99777.98;1744775;82;25420;-64
2022/10/17 07:12:02;;;;;;;12.25;8.15;;;;;;;15.39;74.49;99777.98;1745341;81;25393;-64
2022/10/17 07:14:30;;;;;;;16.87;8.75;;;;;;;15.56;73.59;99783.32;1744996;82;25931;-64
2022/10/17 07:16:58;;;;;;;11.75;8.38;;;;;;;15.73;73.44;99780.36;1744985;81;25579;-65
2022/10/17 07:19:26;;;;;;;11.83;7.70;;;;;;;15.90;73.37;99784.56;1744972;82;27489;-63
2022/10/17 07:21:53;;;;;;;9.65;7.87;;;;;;;16.00;71.85;99777.92;1744823;81;25618;-65
2022/10/17 07:24:20;;;;;;;12.82;7.85;;;;;;;16.20;72.37;99788.11;1745218;82;25850;-65
2022/10/17 07:26:46;;;;;;;12.50;8.33;;;;;;;16.46;71.98;99788.69;1744749;81;25741;-65
2022/10/17 07:29:12;;;;;;;12.43;7.92;;;;;;;16.65;71.51;99786.16;1745728;82;25421;-64
2022/10/17 07:32:07;;;;;;;20.55;12.37;;;;;;;16.83;70.25;99784.73;1745158;81;27338;-65
2022/10/17 07:34:35;;;;;;;12.50;8.30;;;;;;;17.01;69.21;99789.70;1744596;82;25724;-64
2022/10/17 07:37:03;;;;;;;13.85;8.18;;;;;;;17.29;69.51;99790.69;1744483;82;25609;-64
2022/10/17 07:39:29;;;;;;;18.67;10.38;;;;;;;17.55;69.10;99798.08;1737098;82;25778;-65
2022/10/17 07:41:55;;;;;;;13.05;8.60;;;;;;;17.81;67.86;99797.95;1722882;83;25476;-65
2022/10/17 07:44:22;;;;;;;16.42;9.18;;;;;;;18.03;67.75;99792.44;1722325;83;27465;-65
2022/10/17 07:46:49;;;;;;;12.63;8.48;;;;;;;18.27;66.76;99792.38;1722256;83;25623;-64
2022/10/17 07:49:15;;;;;;;10.70;8.15;;;;;;;18.51;67.00;99792.28;1722341;83;25650;-64
2022/10/17 07:51:42;;;;;;;10.95;7.33;;;;;;;18.81;66.13;99793.55;1722450;83;25967;-64
2022/10/17 07:54:08;;;;;;;10.53;7.35;;;;;;;19.10;65.56;99790.98;1722741;83;25536;-64
2022/10/17 07:56:49;;;;;;;11.28;7.90;;;;;;;19.41;62.08;99790.48;1722424;83;27545;-64
2022/10/17 07:59:30;;;;;;;12.80;7.78;;;;;;;19.73;64.01;99787.69;1721943;83;25681;-64
2022/10/17 08:02:02;;;;;;;12.53;9.43;;;;;;;20.03;60.81;99786.88;1718577;83;25790;-60
2022/10/17 08:04:26;;;;;;;11.22;8.05;;;;;;;20.27;59.66;99779.61;1719929;83;25603;-64
2022/10/17 08:06:53;;;;;;;13.48;8.88;;;;;;;20.46;57.86;99782.95;1722369;83;25421;-65
2022/10/17 08:09:20;;;;;;;9.53;7.42;;;;;;;20.56;57.90;99785.22;1722248;83;27413;-65
2022/10/17 08:11:47;;;;;;;10.25;7.30;;;;;;;20.78;59.62;99784.44;1722727;83;25448;-64
2022/10/17 08:14:15;;;;;;;14.00;7.50;;;;;;;21.11;57.59;99787.53;1722352;83;25678;-65
2022/10/17 08:16:42;;;;;;;12.40;7.33;;;;;;;21.33;57.03;99785.88;1722331;83;25764;-65
2022/10/17 08:19:10;;;;;;;10.65;7.45;;;;;;;21.62;58.15;99786.59;1722486;83;25631;-63
2022/10/17 08:21:37;;;;;;;10.80;8.15;;;;;;;21.85;54.58;99786.77;1722355;83;27565;-65
2022/10/17 08:24:04;;;;;;;11.40;7.80;;;;;;;22.15;55.03;99793.78;1722217;83;25655;-65
2022/10/17 08:26:31;;;;;;;11.60;8.03;;;;;;;22.44;55.03;99798.59;1722284;83;25488;-65
2022/10/17 08:28:57;;;;;;;12.75;7.22;;;;;;;22.83;55.52;99797.80;1722260;83;25782;-64
2022/10/17 08:31:24;;;;;;;10.43;8.03;;;;;;;23.19;52.09;99796.25;1722477;83;25405;-65
2022/10/17 08:33:50;;;;;;;12.05;6.70;;;;;;;23.30;50.06;99795.86;1722435;83;27495;-65
2022/10/17 08:36:19;;;;;;;9.20;6.70;;;;;;;23.31;48.71;99800.84;1722286;83;25913;-65
2022/10/17 08:38:46;;;;;;;8.33;7.42;;;;;;;23.41;50.25;99805.05;1722686;83;25632;-65
2022/10/17 08:41:48;;;;;;;9.03;6.92;;;;;;;23.54;50.20;99798.06;1722287;82;25661;-65
2022/10/17 08:44:31;;;;;;;8.58;6.62;;;;;;;23.72;47.15;99798.14;1722303;83;25690;-65
2022/10/17 08:47:01;;;;;;;7.62;5.97;;;;;;;23.93;49.72;99800.45;1722634;83;27420;-64
2022/10/17 08:49:46;;;;;;;8.08;6.30;;;;;;;24.21;48.96;99801.27;1722629;82;33027;-64
2022/10/17 08:52:30;;;;;;;8.50;7.22;;;;;;;24.44;48.43;99796.98;1722493;83;25681;-65
2022/10/17 08:54:56;;;;;;;9.00;6.42;;;;;;;24.66;46.87;99801.42;1722349;83;25678;-63
2022/10/17 08:57:23;;;;;;;8.20;5.97;;;;;;;24.90;46.27;99788.90;1722336;83;25471;-64
2022/10/17 08:59:52;;;;;;;9.03;5.97;;;;;;;25.06;45.95;99791.48;1722412;83;27571;-64
2022/10/17 09:02:50;;;;;;;8.45;6.22;;;;;;;25.25;43.52;99801.47;1722631;83;25420;-64
2022/10/17 09:05:36;;;;;;;8.15;6.22;;;;;;;25.32;43.73;99795.91;1634693;86;25530;-63
2022/10/17 09:08:20;;;;;;;10.90;6.20;;;;;;;25.49;44.80;99803.46;1643083;87;25735;-63
2022/10/17 09:11:03;;;;;;;8.65;6.50;;;;;;;25.76;44.67;99802.70;1557645;91;25563;-62
2022/10/17 09:14:25;;;;;;;8.88;6.78;;;;;;;26.26;43.71;99801.41;1558201;92;28090;-63
2022/10/17 09:17:05;;;;;;;10.78;6.72;;;;;;;26.67;41.97;99803.20;1557703;92;25527;-63
2022/10/17 09:19:36;;;;;;;10.72;6.47;;;;;;;26.91;43.52;99804.28;1557766;92;25754;-63
2022/10/17 09:22:14;;;;;;;9.08;6.20;;;;;;;26.98;42.56;99804.88;1557759;92;27907;-63
2022/10/17 09:24:51;;;;;;;7.40;6.22;;;;;;;27.30;42.14;99806.97;1558258;91;25690;-62
2022/10/17 09:27:25;;;;;;;9.85;5.97;;;;;;;27.59;41.73;99809.78;1557338;92;27518;-64
2022/10/17 09:30:24;;;;;;;8.28;5.42;;;;;;;28.05;39.92;99811.55;1523254;94;25684;-63
2022/10/17 09:32:52;;;;;;;7.57;5.47;;;;;;;28.12;38.98;99808.72;1545411;92;25740;-63
2022/10/17 09:35:21;;;;;;;9.28;6.33;;;;;;;28.14;39.06;99805.48;1546889;92;25725;-62
2022/10/17 09:37:49;;;;;;;10.75;6.12;;;;;;;28.14;39.13;99804.89;1546793;92;25680;-64
2022/10/17 09:40:27;;;;;;;7.62;5.58;;;;;;;28.28;39.46;99797.01;1546097;91;27400;-61
2022/10/17 09:42:54;;;;;;;8.35;5.80;;;;;;;28.64;39.66;99799.50;1548158;92;25790;-63
2022/10/17 09:45:24;;;;;;;8.70;5.70;;;;;;;29.00;37.85;99802.73;1549705;92;25594;-64
2022/10/17 09:48:17;;;;;;;6.53;5.33;;;;;;;29.22;38.20;99805.42;1597335;86;25785;-64
2022/10/17 09:50:45;;;;;;;5.95;5.35;;;;;;;29.32;37.58;99805.94;1662249;86;25678;-63
2022/10/17 09:53:22;;;;;;;6.30;5.70;;;;;;;29.54;36.15;99811.42;1662254;86;27508;-64
2022/10/17 09:55:54;;;;;;;7.08;5.75;;;;;;;29.72;36.61;99807.05;1661542;86;25570;-63
2022/10/17 09:58:22;;;;;;;9.28;5.90;;;;;;;29.93;36.11;99807.44;1662436;86;25689;-63
2022/10/17 10:00:49;;;;;;;7.53;5.42;;;;;;;29.90;36.79;99804.64;1662068;86;25750;-63
2022/10/17 10:03:22;;;;;;;8.63;5.60;;;;;;;30.28;36.08;99805.28;1662641;86;25634;-63
2022/10/17 10:06:15;;;;;;;7.33;5.60;;;;;;;30.40;35.52;99804.70;1662350;86;27672;-62
2022/10/17 10:08:54;;;;;;;9.48;5.95;;;;;;;30.45;35.99;99815.38;1704802;84;25684;-63
2022/10/17 10:11:47;;;;;;;6.92;5.80;;;;;;;30.48;35.48;99810.30;1693013;83;25569;-59
2022/10/17 10:14:32;;;;;;;7.22;5.08;;;;;;;30.61;34.91;99807.09;1679804;85;25897;-61
2022/10/17 10:17:03;;;;;;;6.08;5.28;;;;;;;30.65;34.34;99809.87;1679682;85;25489;-62
2022/10/17 10:19:36;;;;;;;7.62;5.60;;;;;;;30.90;35.43;99807.33;1679340;85;27439;-61
2022/10/17 10:22:17;;;;;;;6.87;5.40;;;;;;;31.18;34.41;99810.36;1679810;85;25972;-62
2022/10/17 10:24:43;;;;;;;5.92;5.33;;;;;;;31.40;33.74;99810.02;1680036;85;25425;-64
2022/10/17 10:27:17;;;;;;;7.67;5.58;;;;;;;31.67;32.63;99804.92;1679678;85;25781;-61
2022/10/17 10:29:50;;;;;;;7.03;5.40;;;;;;;31.87;33.57;99807.60;1679873;85;25611;-60
2022/10/17 10:32:29;;;;;;;6.35;5.03;;;;;;;32.26;31.89;99804.64;1679859;84;27453;-61
2022/10/17 10:34:59;;;;;;;;;;;;;;;32.23;32.23;99800.48;1682382;85;25462;-62
2022/10/17 10:37:31;;;;;;;7.25;5.17;;;;;;;32.18;33.07;99801.15;1679656;84;25631;-62
2022/10/17 10:40:04;;;;;;;7.15;5.40;;;;;;;32.47;32.48;99801.19;1666302;83;25774;-61
2022/10/17 10:42:37;;;;;;;7.17;5.17;;;;;;;32.39;33.14;99798.31;1725310;83;25489;-62
2022/10/17 10:45:21;;;;;;;9.48;5.08;;;;;;;32.47;32.23;99799.77;1725248;83;27431;-61
2022/10/17 10:47:55;;;;;;;7.83;5.20;;;;;;;32.54;31.34;99803.09;1724800;82;25513;-62
2022/10/17 10:50:45;;;;;;;6.78;4.80;;;;;;;32.77;32.32;99804.21;1725745;82;25610;-62
2022/10/17 10:53:52;;;;;;;7.03;5.20;;;;;;;32.99;31.32;99800.88;1725026;82;25739;-62
2022/10/17 10:56:40;;;;;;;8.70;5.03;;;;;;;33.00;31.39;99793.34;1725494;83;25457;-61
2022/10/17 10:59:27;;;;;;;7.15;5.22;;;;;;;33.05;30.52;99792.05;1724870;82;28791;-62
2022/10/17 11:01:58;;;;;;;8.15;4.87;;;;;;;33.28;30.94;99787.45;1725743;82;25689;-62
2022/10/17 11:04:48;;;;;;;5.17;4.67;;;;;;;33.42;31.60;99789.13;1725724;82;25429;-61
2022/10/17 11:07:41;;;;;;;7.37;5.42;;;;;;;33.34;29.52;99787.09;1724790;82;25717;-62
2022/10/17 11:10:40;;;;;;;6.08;5.22;;;;;;;33.33;30.40;99786.11;1724486;82;25613;-62
2022/10/17 11:13:17;;;;;;;8.53;5.33;;;;;;;33.33;30.73;99783.27;1725423;82;28429;-62
2022/10/17 11:16:05;;;;;;;8.68;5.40;;;;;;;33.65;29.79;99780.25;1725519;83;25726;-63
2022/10/17 11:18:49;;;;;;;8.70;5.25;;;;;;;33.84;30.49;99777.08;1725192;82;25451;-62
2022/10/17 11:21:27;;;;;;;7.78;5.22;;;;;;;33.67;29.85;99777.12;1722357;82;25846;-62
2022/10/17 11:24:20;;;;;;;6.85;5.30;;;;;;;33.65;30.12;99775.34;1725382;82;25722;-63
2022/10/17 11:27:03;;;;;;;6.03;5.20;;;;;;;33.70;30.63;99766.90;1725740;82;28287;-64
2022/10/17 11:29:33;;;;;;;8.03;5.28;;;;;;;33.96;30.36;99768.42;1725770;82;25575;-63
2022/10/17 11:32:07;;;;;;;6.95;5.30;;;;;;;34.24;29.99;99773.16;1725451;83;25725;-62
2022/10/17 11:34:39;;;;;;;5.53;4.90;;;;;;;34.33;29.42;99772.48;1725732;83;25720;-63
2022/10/17 11:37:16;;;;;;;8.10;4.87;;;;;;;34.17;30.17;99765.61;1725725;82;25699;-63
2022/10/17 11:40:04;;;;;;;5.40;4.85;;;;;;;34.43;29.08;99769.16;1725794;83;28272;-63
2022/10/17 11:42:41;;;;;;;5.62;4.67;;;;;;;34.51;28.11;99764.05;1720538;83;25888;-63
2022/10/17 11:45:13;;;;;;;7.05;4.47;;;;;;;34.76;28.77;99763.28;1726225;82;25543;-63
2022/10/17 11:47:46;;;;;;;8.15;4.87;;;;;;;34.93;26.85;99766.01;1726066;83;25726;-64
2022/10/17 11:50:36;;;;;;;5.20;4.70;;;;;;;35.09;28.59;99765.09;1726496;82;25413;-63
2022/10/17 11:53:27;;;;;;;8.03;5.40;;;;;;;35.17;28.47;99762.81;1725150;83;27381;-64